Dernières infos :  

11/11/2017  Mise à jour des tableaux d'analyses décadaires : rubrique climatologie
04/11/2017 Mise en ligne de la synthèse climatologique d'Octobre 2017 : 
CLIQUEZ ICI
03/11/2017  Mise à jour des tableaux d'analyses décadaires, mensuelles et annuelles : rubrique climatologie   

Si l'entête du tableau ne s'affiche pas correctement, => actualisez la page (F5 avec Internet Explorer, Chrome...).
Utilisez l'ascenseur sur la droite des lignes du tableau pour faire défiler verticalement les jours du mois.

TABLEAU DES DONNEES COMPLETES NOAA DE JUIN 2015

DATE TEMPERATURE
sous abri
TEMPARATURE 
au sol
VENT  et  Indice de Refroidissement Eolien  PRECIPITATIONS (en mm/m2)
et Intensité
PRESSION ATMOSPHERIQUE (en hPa) HUMIDITE de l'AIR RADIATIONS SOLAIRES (en W/m2)
Mini Moy. Maxi Mini Moy. Maxi Moyen Rafale I.R.E.
Minii
Précip. jour Cumul mois Intensité Maxi Mini Moy. Maxi Mini Moy. Maxi Pic maxi du jour Total jour
01/06/2015 13.7° 19° 24.5° 11.7° 19.4° 28.9° 1.4km/h dir N 24.1km/h dir NNO 13.7° 0 0 1015.6 1016.4 1017.2 54% 71.7% 88% 1146 54 228
02/06/2016 15.7° 21.9° 28.7° 14.4° 22.2° 31.7° 0.2km/h dir S 14.5km/h dir S 15.7° 0 0 1016.6 1017.6 1018.8 38% 65.8% 92% 1035 86 296
03/06/2017 13° 22.1° 29.2° 10.6° 22.2° 33.3° 0km/h dir N 8km/h dir SSO 13.1° 0 0 1018.3 1020.8 1022.1 36% 61.7% 93% 912 92 111
04/06/2018 14.4° 22.9° 31° 12.2° 23.2° 35° 0.2km/h dir N 9.7km/h dir N 14.4° 0 0 1017.8 1020.6 1022.4 40% 67.1% 92% 898 91 851
05/06/2019 18.6° 26.3° 33.5° 16.1° 26.5° 36.7° 1.1km/h dir S 24.1km/h dir S 18.6° 0 0 1014.6 1017.4 1018.8 36% 59% 86% 886 89 694
06/06/2020 17.7° 25.4° 30.7° 15° 25.9° 35.6° 2.7km/h dir N 27.4km/h dir NNO 17.7° 0 0 1017.4 1019.4 1023.2 50% 62.7% 85% 911 88 651
07/06/2021 17.4° 22.4° 28.1° 16.1° 23.6° 32.2° 5.3km/h dir N 29km/h dir NNO 17.4° 1.8 1.8 3.8mm/h 1019.6 1021.9 1024.5 58% 73.1% 93% 923 91 870
08/06/2022 17° 21.5° 26.7° 16.7° 22.5° 31.7° 7.2km/h dir N 27.4km/h dir NNO 17° 0 1.8 1015.4 1018.2 1020.3 53% 63.4% 74% 1074 75 413
09/06/2023 13.6° 18.3° 23.1° 12.2° 19.1° 28.3° 3.2km/h dir N 22.5km/h dir N 13.6° 0 1.8 1015 1016.2 1017.3 63% 75.2% 89% 1039 49 019
10/06/2024 11.2° 19.8° 28.6° 9.4° 20.4° 33.9° 1km/h dir S 19.3km/h dir SE 11.2° 0 1.8 1014.9 1016.4 1017.6 42% 69.9% 93% 1132 74 216
11/06/2025 15.5° 24° 31.4° 12.8° 24.3° 36.1° 1.9km/h dir S 25.7km/h dir S 15.6° 0 1.8 1008.8 1013.2 1016.7 34% 60.5% 89% 902 90 365
12/06/2026 16.3° 21.4° 26.3° 15.6° 21.4° 32.2° 2.1km/h dir SSO 32.2km/h dir SE 16.3° 6.2 8 11.6mm/h 1008.3 1009.9 1011.4 53% 72.6% 94% 912 38 073
13/06/2027 14.6° 20.4° 26.9° 12.8° 21.6° 31.1° 1km/h dir NNE 30.6km/h dir S 14.6° 2.8 10.8 6.4mm/h 1007.6 1011 1013 49% 75.6% 96% 967 87 493
14/06/2028 15.4° 19° 23.4° 14.4° 19.6° 28.9° 0.3km/h dir SSO 19.3km/h dir SE 15.4° 7.4 18.2 9.8mm/h 1007.7 1009 1011 66% 83% 95% 1005 49 640
15/06/2029 16.6° 19.4° 24.6° 16.1° 20.3° 28.9° 2.7km/h dir OSO 22.5km/h dir NNO 10.5° 9.2 27.4 70.2mm/h 1010.9 1013 1016.2 60% 82.8% 95% 1209 62 649
16/06/2030 16.3° 18.3° 22.5° 16.1° 18.6° 27.8° 0km/h dir SE 29.9km/h dir N 16.3° 9.6 37 16.8mm/h 1015.4 1016.4 1018.4 70% 87.6% 95% 1238 37 967
17/06/2031 12.6° 18.4° 23.7° 11.7° 19.2° 27.2° 3.8km/h dir N 56.3km/h dir N 12.6° 0 37 1018.5 1020.1 1021.2 44% 67.9% 88% 960 96 763
18/06/2032 10.7° 18.2° 24° 9.4° 18.8° 29.4° 2km/h dir N 35.4km/h dir NNO 10.7° 0 37 1017.1 1019.3 1021.3 55% 75.9% 94% 1215 52 188
19/06/2033 14.1° 18.7° 22.7° 11.1° 19.6° 27.2° 4.25km/h dir N 40.2km/h dir NNE 14.2° 0 37 1016.5 1017.8 1018.9 44% 68.8% 93% 956 94 588
20/06/2034 10.2° 16.6° 22.1° 8.3° 17.2° 26.7° 2.4km/h dir N 33.8km/h dir N 10.2° 0 37 1018.8 1019.8 1020.6 47% 70.3% 94% 1123 84 384
21/06/2035 11.3° 18.6° 25° 10° 19.2° 28.9° 1.35km/h dir N 25.7km/h dir N 11.3° 1.2 38.2 10.2mm/h 1016.4 1018.7 1020.8 51% 72.3% 93% 940 63 040
22/06/2036 13.6° 21.2° 27.7° 11.7° 21.6° 30.6° 4.85km/h dir N 70.8km/h dir N 13.6° 0.2 38.4 1.6mm/h 1007.7 1012.9 1016.9 44% 70.2% 95% 1099 72 211
23/06/2037 13.2° 17.3° 21.7° 11.1° 18.2° 26.1° 7.55km/h dir N 59.5km/h dir N 10.2° 0.6 39 0.8mm/h 1011.3 1014.2 1017.9 45% 67.5% 91% 1176 77 143
24/06/2038 8.1° 17.7° 26° 6.1° 18.1° 29.4° 5.4km/h dir N 43.5km/h dir N 7.4° 0 39 1017.7 1019.1 1020.4 39% 64.8% 93% 935 97 359
25/06/2039 9.8° 19.7° 27.7° 7.8° 20.2° 31.7° 3.45km/h dir N 38.6km/h dir N 9.8° 0 39 1020.1 1021 1022 31% 61.1% 94% 963 92 382
26/06/2040 11.8° 21.7° 30° 10° 21.7° 33.9° 3.3km/h dir N 37km/h dir N 11.8° 0 39 1017.2 1019.3 1020.8 30% 58.3% 91% 979 90 452
27/06/2041 15.3° 22.5° 28.7° 12.8° 23° 33.3° 5.65km/h dir N 51.5km/h dir N 15° 0 39 1016.4 1018 1019.8 40% 60.9% 84% 1046 89 862
28/06/2042 13.2° 22.3° 30.1° 11.1° 22.7° 34.4° 5.25km/h dir N 46.7km/h dir N 12.8° 0 39 1017 1018.5 1019.7 25% 55.6% 90% 930 95 763
29/06/2043 13.6° 23.5° 31.6° 11.7° 24° 35.6° 3.4km/h dir S 40.2km/h dir N 13.3° 0 39 1017.9 1019 1020.4 31% 56.3% 85% 972 86 174
30/06/2044 14.8° 25.7° 35.2° 12.8° 25.9° 39.4° 2.55km/h dir S 35.4km/h dir N 14.8° 0 39 1013.6 1016.1 1018.4 25% 57.1% 92% 911 94 186

RETOUR ACCUEIL


Date de création : 02/07/2015 : 18:26
Catégorie : ARCHIVES 2002 à 2016 - ANNEES 2010 à 2019 - ANNEE 2015 - JUIN 2015
Page lue 1583 fois


Réactions à cet article

Personne n'a encore laissé de commentaire.
Soyez donc le premier !